Flight Track Log - Related Links

Times and Time Zones

All times are in EDT time to prevent confusion due to time zone crossing. See the AFL150 flight status page for this flight to view local times or setup timezone preferences in your user account.

Time Position Orientation Groundspeed Altitude Reporting Facility
EDT Latitude Longitude Course Direction KTS MPH feet Rate Location/Type
Mon 07:20:56 AM 55.9827 37.4884 76° East 171 197 2,500  Level FlightAware ADS-B (UUWV / MOW)
Mon 07:22:38 AM 56.0055 37.6479 76° East 252 290 4,600 1,311 Climbing FlightAware ADS-B (UUWV / MOW)
Mon 07:22:55 AM 56.0081 37.6653 76° East 259 298 5,100 2,298 Climbing FlightAware ADS-B (UUWV / MOW)
Mon 07:23:25 AM 56.0292 37.7390 34° Northeast 268 308 6,400 2,478 Climbing FlightAware ADS-B (UUWV / MOW)
Mon 07:23:41 AM 56.0416 37.7483 North 273 314 7,000 2,217 Climbing FlightAware ADS-B (UUWV / MOW)
Mon 07:24:11 AM 56.0822 37.7239 314° West 287 330 8,100 2,267 Climbing FlightAware ADS-B (UUWV / MOW)
Mon 07:24:26 AM 56.0907 37.6959 291° West 291 335 8,700 2,690 Climbing FlightAware ADS-B (UUWV / MOW)
Mon 07:24:40 AM 56.0919 37.6571 263° West 290 334 9,400 2,267 Climbing FlightAware ADS-B (UUWV / MOW)
Mon 07:25:11 AM 56.0847 37.6113 252° West 304 350 10,400 1,360 Climbing FlightAware ADS-B (UUWV / MOW)
Mon 07:25:55 AM 56.0671 37.4762 274° West 344 396 11,100 1,000 Climbing FlightAware ADS-B (UUWV / MOW)
Mon 07:26:11 AM 56.0736 37.4353 290° West 353 406 11,400 2,111 Climbing FlightAware ADS-B (UUWV / MOW)
Mon 07:26:49 AM 56.0961 37.3199 288° West 371 427 13,000 2,240 Climbing FlightAware ADS-B (UUWV / MOW)
Mon 07:27:26 AM 56.1155 37.2153 289° West 375 432 14,200 1,756 Climbing FlightAware ADS-B (UUWV / MOW)
Mon 07:28:11 AM 56.1413 37.0776 289° West 388 447 15,400 1,483 Climbing FlightAware ADS-B (UUWV / MOW)
Mon 07:28:55 AM 56.1628 36.9617 288° West 392 451 16,400 1,680 Climbing FlightAware ADS-B (UUWV / MOW)
Mon 07:29:26 AM 56.1845 36.8433 288° West 397 457 17,500 1,476 Climbing FlightAware ADS-B (UUWV / MOW)
Mon 07:38:24 AM 56.9184 35.6523 335° Northwest 451 519 30,400 1,411 Climbing FlightAware ADS-B (UUWV / MOW)
Mon 07:38:56 AM 56.9816 35.5994 335° Northwest 450 518 30,900 947 Climbing FlightAware ADS-B (UUWV / MOW)
Mon 07:39:40 AM 57.0645 35.5296 335° Northwest 446 513 31,600 1,500 Climbing FlightAware ADS-B (UUWV / MOW)
Mon 07:40:24 AM 57.1437 35.4627 335° Northwest 430 495 33,100 1,618 Climbing FlightAware ADS-B (UUWV / MOW)
Mon 07:41:09 AM 57.2243 35.3942 335° Northwest 423 487 34,000 720 Climbing FlightAware ADS-B (UUWV / MOW)
Mon 07:41:39 AM 57.2797 35.3470 335° Northwest 433 498 34,000  Level FlightAware ADS-B (UUWV / MOW)
Mon 07:42:11 AM 57.3373 35.2977 335° Northwest 441 507 34,000  Level FlightAware ADS-B (UUWV / MOW)
Mon 07:42:55 AM 57.4157 35.2305 335° Northwest 443 510 34,000  Level FlightAware ADS-B (UUWV / MOW)
Mon 07:45:00 AM 57.6301 35.0448 335° Northwest 441 507 34,000 Level FlightAware ADS-B (UUWV / MOW)
Mon 07:47:00 AM 57.7702 34.6649 305° West  Level Estimated
Mon 07:48:00 AM 57.8399 34.4739 304° West  Level Estimated
Mon 07:49:00 AM 57.9093 34.2821 304° West  Level Estimated
Mon 07:50:00 AM 57.9784 34.0896 304° West  Level Estimated
Mon 07:51:00 AM 58.0471 33.8964 304° West  Level Estimated
Mon 07:52:00 AM 58.1157 33.7024 304° West  Level Estimated
Mon 07:53:00 AM 58.1838 33.5076 304° West  Level Estimated
Mon 07:54:00 AM 58.2518 33.3121 303° West  Level Estimated
Mon 07:55:00 AM 58.3194 33.1159 303° West  Level Estimated
Mon 07:56:00 AM 58.3867 32.9189 303° West  Level Estimated
Mon 07:57:00 AM 58.4537 32.7212 303° West  Level Estimated
Mon 07:58:00 AM 58.5204 32.5227 303° West  Level Estimated
Mon 07:59:00 AM 58.5867 32.3235 303° West  Level Estimated
Mon 08:00:00 AM 58.6528 32.1235 302° West  Level Estimated
Mon 08:01:00 AM 58.7186 31.9227 302° West  Level Estimated
Mon 08:02:00 AM 58.7840 31.7212 302° West  Level Estimated
Mon 08:03:00 AM 58.8492 31.5189 302° West  Level Estimated
Mon 08:04:00 AM 58.9140 31.3159 302° West  Level Estimated
Mon 08:05:00 AM 58.9785 31.1121 302° West  Level Estimated
Mon 08:06:00 AM 59.0243 30.8898 292° West  Level FlightAware Approximate
Mon 08:07:00 AM 59.0698 30.6668 292° West  Level FlightAware Approximate
Mon 08:08:00 AM 59.1149 30.4433 292° West  Level FlightAware Approximate
Mon 08:09:00 AM 59.1595 30.2193 291° West  Level FlightAware Approximate
Mon 08:10:00 AM 59.2223 30.0120 306° West  Level Estimated
Mon 08:11:00 AM 59.2941 29.8158 306° West  Level FlightAware Approximate
Mon 08:12:00 AM 59.3656 29.6187 305° West  Level FlightAware Approximate
Mon 08:13:00 AM 59.4367 29.4208 305° West  Level FlightAware Approximate
Mon 08:14:00 AM 59.5076 29.2220 305° West  Level FlightAware Approximate
Mon 08:15:00 AM 59.5781 29.0225 305° West  Level FlightAware Approximate
Mon 08:16:00 AM 59.6484 28.8221 305° West  Level FlightAware Approximate
Mon 08:17:00 AM 59.7183 28.6208 305° West  Level FlightAware Approximate
Mon 08:18:00 AM 59.7880 28.4188 304° West  Level FlightAware Approximate
Mon 08:19:00 AM 59.8573 28.2158 304° West  Level FlightAware Approximate
Mon 08:20:00 AM 59.9263 28.0121 304° West  Level FlightAware Approximate
Mon 08:21:00 AM 59.9950 27.8074 304° West  Level FlightAware Approximate
Mon 08:22:00 AM 60.0634 27.6020 304° West  Level FlightAware Approximate
Mon 08:23:00 AM 60.1315 27.3956 304° West  Level FlightAware Approximate
Mon 08:24:00 AM 60.1992 27.1885 303° West  Level FlightAware Approximate
Mon 08:25:00 AM 60.2570 26.9690 303° West  Level Estimated
Mon 08:26:00 AM 60.3248 26.7611 303° West  Level FlightAware Approximate
Mon 08:27:00 AM 60.3922 26.5523 303° West  Level FlightAware Approximate
Mon 08:28:00 AM 60.4594 26.3427 303° West  Level FlightAware Approximate
Mon 08:29:00 AM 60.5261 26.1322 303° West  Level FlightAware Approximate
Mon 08:30:00 AM 60.5926 25.9208 303° West  Level FlightAware Approximate
Mon 08:31:00 AM 60.6587 25.7085 303° West  Level FlightAware Approximate
Mon 08:32:00 AM 60.7140 25.4834 302° West  Level Estimated
Mon 08:33:00 AM 60.7790 25.2689 302° West  Level FlightAware Approximate
Mon 08:34:00 AM 60.8437 25.0535 302° West  Level FlightAware Approximate
Mon 08:35:00 AM 60.9080 24.8373 302° West  Level FlightAware Approximate
Mon 08:36:00 AM 60.9720 24.6202 301° West  Level FlightAware Approximate
Mon 08:37:00 AM 61.0356 24.4022 301° West  Level FlightAware Approximate
Mon 08:38:00 AM 61.0989 24.1834 301° West  Level FlightAware Approximate
Mon 08:39:00 AM 61.1618 23.9636 301° West  Level FlightAware Approximate
Mon 08:40:00 AM 61.2243 23.7430 301° West  Level FlightAware Approximate
Mon 08:41:00 AM 61.2865 23.5216 300° West  Level FlightAware Approximate
Mon 08:42:00 AM 61.3483 23.2992 300° West  Level FlightAware Approximate
Mon 08:43:00 AM 61.4098 23.0760 300° West  Level FlightAware Approximate
Mon 08:44:00 AM 61.4709 22.8519 300° West  Level FlightAware Approximate
Mon 08:45:00 AM 61.5316 22.6269 300° West  Level FlightAware Approximate
Mon 08:46:00 AM 61.5919 22.4010 299° West  Level FlightAware Approximate
Mon 08:47:00 AM 61.6519 22.1743 299° West  Level FlightAware Approximate
Mon 08:48:00 AM 61.7115 21.9467 299° West  Level FlightAware Approximate
Mon 08:49:00 AM 61.7708 21.7181 299° West  Level FlightAware Approximate
Mon 08:50:00 AM 61.8296 21.4888 299° West  Level FlightAware Approximate
Mon 08:51:00 AM 61.8881 21.2585 298° West  Level FlightAware Approximate
Mon 08:52:00 AM 61.9461 21.0274 298° West  Level FlightAware Approximate
Mon 08:53:00 AM 62.0038 20.7954 298° West  Level FlightAware Approximate
Mon 08:54:00 AM 62.0611 20.5625 298° West  Level FlightAware Approximate
Mon 08:55:00 AM 62.1180 20.3287 298° West  Level FlightAware Approximate
Mon 08:56:00 AM 62.1745 20.0940 297° West  Level FlightAware Approximate
Mon 08:57:00 AM 62.2306 19.8585 297° West  Level FlightAware Approximate
Mon 08:58:00 AM 62.2863 19.6221 297° West  Level FlightAware Approximate
Mon 08:59:00 AM 62.3416 19.3849 297° West  Level FlightAware Approximate
Mon 09:00:00 AM 62.3965 19.1467 297° West  Level FlightAware Approximate
Mon 09:01:00 AM 62.4510 18.9077 296° West  Level FlightAware Approximate
Mon 09:02:00 AM 62.5051 18.6678 296° West  Level FlightAware Approximate
Mon 09:03:00 AM 62.5480 18.4172 295° West  Level Estimated
Mon 09:04:00 AM 62.6010 18.1754 296° West  Level FlightAware Approximate
Mon 09:05:00 AM 62.6536 17.9327 295° West  Level FlightAware Approximate
Mon 09:06:00 AM 62.7057 17.6892 295° West  Level FlightAware Approximate
Mon 09:07:00 AM 62.7575 17.4448 295° West  Level FlightAware Approximate
Mon 09:08:00 AM 62.8088 17.1996 295° West  Level FlightAware Approximate
Mon 09:09:00 AM 62.8597 16.9535 294° West  Level FlightAware Approximate
Mon 09:10:00 AM 62.9101 16.7066 294° West  Level FlightAware Approximate
Mon 09:11:00 AM 62.9601 16.4588 294° West  Level FlightAware Approximate
Mon 09:12:00 AM 63.0097 16.2102 294° West  Level FlightAware Approximate
Mon 09:13:00 AM 63.0588 15.9607 294° West  Level FlightAware Approximate
Mon 09:14:00 AM 63.1076 15.7104 293° West  Level FlightAware Approximate
Mon 09:15:00 AM 63.1558 15.4593 293° West  Level FlightAware Approximate
Mon 09:16:00 AM 63.2036 15.2073 293° West  Level FlightAware Approximate
Mon 09:17:00 AM 63.2510 14.9545 293° West  Level FlightAware Approximate
Mon 09:18:00 AM 63.2979 14.7008 292° West  Level FlightAware Approximate
Mon 09:19:00 AM 63.3444 14.4464 292° West  Level FlightAware Approximate
Mon 09:20:00 AM 63.3904 14.1911 292° West  Level FlightAware Approximate
Mon 09:21:00 AM 63.4359 13.9350 292° West  Level FlightAware Approximate
Mon 09:22:00 AM 63.4810 13.6781 292° West  Level FlightAware Approximate
Mon 09:23:00 AM 63.5257 13.4204 291° West  Level FlightAware Approximate
Mon 09:24:00 AM 63.5698 13.1619 291° West  Level FlightAware Approximate
Mon 09:25:00 AM 63.6135 12.9026 291° West  Level FlightAware Approximate
Mon 09:26:00 AM 63.6457 12.6345 290° West  Level Estimated
Mon 09:27:00 AM 63.6882 12.3735 290° West  Level FlightAware Approximate
Mon 09:28:00 AM 63.7302 12.1117 290° West  Level FlightAware Approximate
Mon 09:29:00 AM 63.7717 11.8491 290° West  Level FlightAware Approximate
Mon 09:30:00 AM 63.8127 11.5857 290° West  Level FlightAware Approximate
Mon 09:31:00 AM 63.8533 11.3216 289° West  Level FlightAware Approximate
Mon 09:32:00 AM 63.8934 11.0567 289° West  Level FlightAware Approximate
Mon 09:33:00 AM 63.9330 10.7911 289° West  Level FlightAware Approximate
Mon 09:34:00 AM 63.9721 10.5247 289° West  Level FlightAware Approximate
Mon 09:35:00 AM 64.0107 10.2576 288° West  Level FlightAware Approximate
Mon 09:36:00 AM 64.0488 9.9897 288° West  Level FlightAware Approximate
Mon 09:37:00 AM 64.0864 9.7211 288° West  Level FlightAware Approximate
Mon 09:38:00 AM 64.1236 9.4518 288° West  Level FlightAware Approximate
Mon 09:39:00 AM 64.1602 9.1818 287° West  Level FlightAware Approximate
Mon 09:40:00 AM 64.1963 8.9110 287° West  Level FlightAware Approximate
Mon 09:41:00 AM 64.2320 8.6396 287° West  Level FlightAware Approximate
Mon 09:42:00 AM 64.2671 8.3675 287° West  Level FlightAware Approximate
Mon 09:43:00 AM 64.3017 8.0947 286° West  Level FlightAware Approximate
Mon 09:44:00 AM 64.3358 7.8212 286° West  Level FlightAware Approximate
Mon 09:45:00 AM 64.3694 7.5470 286° West  Level FlightAware Approximate
Mon 09:46:00 AM 64.4025 7.2722 286° West  Level FlightAware Approximate
Mon 09:47:00 AM 64.4351 6.9967 285° West  Level FlightAware Approximate
Mon 09:48:00 AM 64.4671 6.7205 285° West  Level FlightAware Approximate
Mon 09:49:00 AM 64.4987 6.4437 285° West  Level FlightAware Approximate
Mon 09:50:00 AM 64.5297 6.1663 285° West  Level FlightAware Approximate
Mon 09:51:00 AM 64.5602 5.8882 284° West  Level FlightAware Approximate
Mon 09:52:00 AM 64.5901 5.6096 284° West  Level FlightAware Approximate
Mon 09:53:00 AM 64.6196 5.3303 284° West  Level FlightAware Approximate
Mon 09:54:00 AM 64.6485 5.0504 284° West  Level FlightAware Approximate
Mon 09:55:00 AM 64.6769 4.7699 283° West  Level FlightAware Approximate
Mon 09:56:00 AM 64.7047 4.4889 283° West  Level FlightAware Approximate
Mon 09:57:00 AM 64.7207 4.2026 283° West  Level Estimated
Mon 09:58:00 AM 64.7479 3.9207 283° West  Level FlightAware Approximate
Mon 09:59:00 AM 64.7746 3.6383 283° West  Level FlightAware Approximate
Mon 10:00:00 AM 64.8007 3.3554 282° West  Level FlightAware Approximate
Mon 10:01:00 AM 64.8263 3.0719 282° West  Level FlightAware Approximate
Mon 10:02:00 AM 64.8514 2.7878 282° West  Level FlightAware Approximate
Mon 10:03:00 AM 64.8759 2.5033 282° West  Level FlightAware Approximate
Mon 10:04:00 AM 64.8999 2.2182 281° West  Level FlightAware Approximate
Mon 10:05:00 AM 64.9234 1.9326 281° West  Level FlightAware Approximate
Mon 10:06:00 AM 64.9462 1.6466 281° West  Level FlightAware Approximate
Mon 10:07:00 AM 64.9686 1.3600 281° West  Level FlightAware Approximate
Mon 10:08:00 AM 64.9904 1.0730 280° West  Level FlightAware Approximate
Mon 10:09:00 AM 65.0116 0.7855 280° West  Level FlightAware Approximate
Mon 10:10:00 AM 65.0323 0.4976 280° West  Level FlightAware Approximate
Mon 10:11:00 AM 65.0524 0.2092 280° West  Level FlightAware Approximate
Mon 10:12:00 AM 65.0599 -0.0827 279° West  Level Estimated
Mon 10:13:00 AM 65.0792 -0.3717 279° West  Level FlightAware Approximate
Mon 10:14:00 AM 65.0980 -0.6611 279° West  Level FlightAware Approximate
Mon 10:15:00 AM 65.1162 -0.9509 279° West  Level FlightAware Approximate
Mon 10:16:00 AM 65.1338 -1.2411 278° West  Level FlightAware Approximate
Mon 10:17:00 AM 65.1509 -1.5317 278° West  Level FlightAware Approximate
Mon 10:18:00 AM 65.1674 -1.8226 278° West  Level FlightAware Approximate
Mon 10:19:00 AM 65.1834 -2.1139 278° West  Level FlightAware Approximate
Mon 10:20:00 AM 65.1988 -2.4056 277° West  Level FlightAware Approximate
Mon 10:21:00 AM 65.2136 -2.6976 277° West  Level FlightAware Approximate
Mon 10:22:00 AM 65.2279 -2.9898 277° West  Level FlightAware Approximate
Mon 10:23:00 AM 65.2416 -3.2824 277° West  Level FlightAware Approximate
Mon 10:24:00 AM 65.2547 -3.5754 276° West  Level FlightAware Approximate
Mon 10:25:00 AM 65.2673 -3.8685 276° West  Level FlightAware Approximate
Mon 10:26:00 AM 65.2792 -4.1620 276° West  Level FlightAware Approximate
Mon 10:27:00 AM 65.2906 -4.4557 275° West  Level FlightAware Approximate
Mon 10:28:00 AM 65.3015 -4.7497 275° West  Level FlightAware Approximate
Mon 10:29:00 AM 65.3118 -5.0439 275° West  Level FlightAware Approximate
Mon 10:30:00 AM 65.3214 -5.3383 275° West  Level FlightAware Approximate
Mon 10:31:00 AM 65.3306 -5.6330 274° West  Level FlightAware Approximate
Mon 10:32:00 AM 65.3391 -5.9278 274° West  Level FlightAware Approximate
Mon 10:33:00 AM 65.3471 -6.2228 274° West  Level FlightAware Approximate
Mon 10:34:00 AM 65.3545 -6.5180 274° West  Level FlightAware Approximate
Mon 10:35:00 AM 65.3613 -6.8134 273° West  Level FlightAware Approximate
Mon 10:36:00 AM 65.3547 -7.1088 272° West  Level Estimated
Mon 10:37:00 AM 65.3598 -7.4043 272° West  Level FlightAware Approximate
Mon 10:38:00 AM 65.3643 -7.7000 272° West  Level FlightAware Approximate
Mon 10:39:00 AM 65.3682 -7.9957 272° West  Level FlightAware Approximate
Mon 10:40:00 AM 65.3716 -8.2915 272° West  Level FlightAware Approximate
Mon 10:41:00 AM 65.3743 -8.5875 271° West  Level FlightAware Approximate
Mon 10:42:00 AM 65.3765 -8.8834 271° West  Level FlightAware Approximate
Mon 10:43:00 AM 65.3781 -9.1794 271° West  Level FlightAware Approximate
Mon 10:44:00 AM 65.3792 -9.4754 271° West  Level FlightAware Approximate
Mon 10:45:00 AM 65.3796 -9.7715 270° West  Level FlightAware Approximate
Mon 10:46:00 AM 65.3795 -10.0675 270° West  Level FlightAware Approximate
Mon 10:47:00 AM 65.3788 -10.3636 270° West  Level FlightAware Approximate
Mon 10:48:00 AM 65.3775 -10.6596 270° West  Level FlightAware Approximate
Mon 10:49:00 AM 65.3756 -10.9556 269° West  Level FlightAware Approximate
Mon 10:50:00 AM 65.3732 -11.2515 269° West  Level FlightAware Approximate
Mon 10:51:00 AM 65.3701 -11.5474 269° West  Level FlightAware Approximate
Mon 10:52:00 AM 65.3542 -11.8407 268° West  Level Estimated
Mon 10:53:00 AM 65.3499 -12.1363 268° West  Level FlightAware Approximate
Mon 10:54:00 AM 65.3452 -12.4318 268° West  Level FlightAware Approximate
Mon 10:55:00 AM 65.3398 -12.7271 268° West  Level FlightAware Approximate
Mon 10:56:00 AM 65.3338 -13.0223 267° West  Level FlightAware Approximate
Mon 10:57:00 AM 65.3273 -13.3174 267° West  Level FlightAware Approximate
Mon 10:58:00 AM 65.3202 -13.6124 267° West  Level FlightAware Approximate
Mon 10:59:00 AM 65.3125 -13.9071 267° West  Level FlightAware Approximate
Mon 11:00:00 AM 65.3043 -14.2017 266° West  Level FlightAware Approximate
Mon 11:01:00 AM 65.2954 -14.4961 266° West  Level FlightAware Approximate
Mon 11:02:00 AM 65.2860 -14.7903 266° West  Level FlightAware Approximate
Mon 11:03:00 AM 65.2760 -15.0843 265° West  Level FlightAware Approximate
Mon 11:04:00 AM 65.2655 -15.3780 265° West  Level FlightAware Approximate
Mon 11:05:00 AM 65.2544 -15.6715 265° West  Level FlightAware Approximate
Mon 11:06:00 AM 65.2427 -15.9648 265° West  Level FlightAware Approximate
Mon 11:07:00 AM 65.2304 -16.2578 264° West  Level FlightAware Approximate
Mon 11:08:00 AM 65.2176 -16.5505 264° West  Level FlightAware Approximate
Mon 11:09:00 AM 65.2042 -16.8429 264° West  Level FlightAware Approximate
Mon 11:10:00 AM 65.1902 -17.1350 264° West  Level FlightAware Approximate
Mon 11:11:00 AM 65.1757 -17.4268 263° West  Level FlightAware Approximate
Mon 11:12:00 AM 65.1606 -17.7183 263° West  Level FlightAware Approximate
Mon 11:13:00 AM 65.1449 -18.0094 263° West  Level FlightAware Approximate
Mon 11:14:00 AM 65.1287 -18.3002 263° West  Level FlightAware Approximate
Mon 11:15:00 AM 65.1119 -18.5907 262° West  Level FlightAware Approximate
Mon 11:16:00 AM 65.0946 -18.8807 262° West  Level FlightAware Approximate
Mon 11:17:00 AM 65.0766 -19.1704 262° West  Level FlightAware Approximate
Mon 11:18:00 AM 65.0582 -19.4597 262° West  Level FlightAware Approximate
Mon 11:19:00 AM 65.0391 -19.7485 261° West  Level FlightAware Approximate
Mon 11:20:00 AM 65.0195 -20.0370 261° West  Level FlightAware Approximate
Mon 11:21:00 AM 64.9994 -20.3250 261° West  Level FlightAware Approximate
Mon 11:22:00 AM 64.9787 -20.6126 260° West  Level FlightAware Approximate
Mon 11:23:00 AM 64.9575 -20.8997 260° West  Level FlightAware Approximate
Mon 11:24:00 AM 64.9231 -21.1794 260° West  Level Estimated
Mon 11:25:00 AM 64.9007 -21.4654 260° West  Level FlightAware Approximate
Mon 11:26:00 AM 64.8777 -21.7510 259° West  Level FlightAware Approximate
Mon 11:27:00 AM 64.8541 -22.0360 259° West  Level FlightAware Approximate
Mon 11:28:00 AM 64.8301 -22.3205 259° West  Level FlightAware Approximate
Mon 11:29:00 AM 64.8054 -22.6046 259° West  Level FlightAware Approximate
Mon 11:30:00 AM 64.7803 -22.8881 258° West  Level FlightAware Approximate
Mon 11:31:00 AM 64.7545 -23.1710 258° West  Level FlightAware Approximate
Mon 11:32:00 AM 64.7283 -23.4534 258° West  Level FlightAware Approximate
Mon 11:33:00 AM 64.7015 -23.7353 258° West  Level FlightAware Approximate
Mon 11:34:00 AM 64.6742 -24.0166 257° West  Level FlightAware Approximate
Mon 11:35:00 AM 64.6463 -24.2973 257° West  Level FlightAware Approximate
Mon 11:36:00 AM 64.6180 -24.5775 257° West  Level FlightAware Approximate
Mon 11:37:00 AM 64.5890 -24.8571 257° West  Level FlightAware Approximate
Mon 11:38:00 AM 64.5596 -25.1360 256° West  Level FlightAware Approximate
Mon 11:39:00 AM 64.5296 -25.4144 256° West  Level FlightAware Approximate
Mon 11:40:00 AM 64.4991 -25.6921 256° West  Level FlightAware Approximate
Mon 11:41:00 AM 64.4681 -25.9692 256° West  Level FlightAware Approximate
Mon 11:42:00 AM 64.4366 -26.2457 255° West  Level FlightAware Approximate
Mon 11:43:00 AM 64.4045 -26.5216 255° West  Level FlightAware Approximate
Mon 11:44:00 AM 64.3720 -26.7968 255° West  Level FlightAware Approximate
Mon 11:45:00 AM 64.3389 -27.0713 255° West  Level FlightAware Approximate
Mon 11:46:00 AM 64.3053 -27.3452 254° West  Level FlightAware Approximate
Mon 11:47:00 AM 64.2712 -27.6184 254° West  Level FlightAware Approximate
Mon 11:48:00 AM 64.2366 -27.8909 254° West  Level FlightAware Approximate
Mon 11:49:00 AM 64.2014 -28.1627 254° West  Level FlightAware Approximate
Mon 11:50:00 AM 64.1658 -28.4339 253° West  Level FlightAware Approximate
Mon 11:51:00 AM 64.1297 -28.7043 253° West  Level FlightAware Approximate
Mon 11:52:00 AM 64.0931 -28.9741 253° West  Level FlightAware Approximate
Mon 11:53:00 AM 64.0559 -29.2431 253° West  Level FlightAware Approximate
Mon 11:54:00 AM 64.0183 -29.5114 252° West  Level FlightAware Approximate
Mon 11:55:00 AM 63.9802 -29.7789 252° West  Level FlightAware Approximate
Mon 11:56:00 AM 63.9416 -30.0458 252° West  Level FlightAware Approximate
Mon 11:57:00 AM 63.9025 -30.3119 252° West  Level FlightAware Approximate
Mon 11:58:00 AM 63.8629 -30.5772 251° West  Level FlightAware Approximate
Mon 11:59:00 AM 63.8229 -30.8419 251° West  Level FlightAware Approximate
Mon 12:00:00 PM 63.7823 -31.1057 251° West  Level FlightAware Approximate
Mon 12:01:00 PM 63.7413 -31.3688 251° West  Level FlightAware Approximate
Mon 12:02:00 PM 63.6998 -31.6311 250° West  Level FlightAware Approximate
Mon 12:03:00 PM 63.6578 -31.8927 250° West  Level FlightAware Approximate
Mon 12:04:00 PM 63.6154 -32.1534 250° West  Level FlightAware Approximate
Mon 12:05:00 PM 63.5724 -32.4134 250° West  Level FlightAware Approximate
Mon 12:06:00 PM 63.5291 -32.6726 250° West  Level FlightAware Approximate
Mon 12:07:00 PM 63.4852 -32.9310 249° West  Level FlightAware Approximate
Mon 12:08:00 PM 63.4409 -33.1886 249° West  Level FlightAware Approximate
Mon 12:09:00 PM 63.3832 -33.4348 242° Southwest  Level Estimated
Mon 12:10:00 PM 63.3251 -33.6801 242° Southwest  Level Estimated
Mon 12:11:00 PM 63.2665 -33.9245 242° Southwest  Level Estimated
Mon 12:12:00 PM 63.2075 -34.1679 242° Southwest  Level Estimated
Mon 12:13:00 PM 63.1481 -34.4103 242° Southwest  Level Estimated
Mon 12:14:00 PM 63.0883 -34.6517 241° Southwest  Level Estimated
Mon 12:15:00 PM 63.0281 -34.8921 241° Southwest  Level Estimated
Mon 12:16:00 PM 62.9675 -35.1315 241° Southwest  Level Estimated
Mon 12:17:00 PM 62.9065 -35.3699 241° Southwest  Level Estimated
Mon 12:18:00 PM 62.8450 -35.6073 241° Southwest  Level Estimated
Mon 12:19:00 PM 62.7832 -35.8438 240° Southwest  Level Estimated
Mon 12:20:00 PM 62.7210 -36.0792 240° Southwest  Level Estimated
Mon 12:21:00 PM 62.6584 -36.3136 240° Southwest  Level Estimated
Mon 12:22:00 PM 62.5954 -36.5471 240° Southwest  Level Estimated
Mon 12:23:00 PM 62.5320 -36.7796 239° Southwest  Level Estimated
Mon 12:24:00 PM 62.4682 -37.0110 239° Southwest  Level Estimated
Mon 12:25:00 PM 62.4041 -37.2415 239° Southwest  Level Estimated
Mon 12:26:00 PM 62.3396 -37.4710 239° Southwest  Level Estimated
Mon 12:27:00 PM 62.2747 -37.6995 239° Southwest  Level Estimated
Mon 12:28:00 PM 62.2094 -37.9270 238° Southwest  Level Estimated
Mon 12:29:00 PM 62.1437 -38.1536 238° Southwest  Level Estimated
Mon 12:30:00 PM 62.0777 -38.3791 238° Southwest  Level Estimated
Mon 12:31:00 PM 62.0113 -38.6037 238° Southwest  Level Estimated
Mon 12:32:00 PM 61.9446 -38.8273 238° Southwest  Level Estimated
Mon 12:33:00 PM 61.8774 -39.0499 237° Southwest  Level Estimated
Mon 12:34:00 PM 61.8100 -39.2715 237° Southwest  Level Estimated
Mon 12:35:00 PM 61.7422 -39.4922 237° Southwest  Level Estimated
Mon 12:36:00 PM 61.6740 -39.7119 237° Southwest  Level Estimated
Mon 12:37:00 PM 61.6054 -39.9306 237° Southwest  Level Estimated
Mon 12:38:00 PM 61.5366 -40.1483 236° Southwest  Level Estimated
Mon 12:39:00 PM 61.4674 -40.3651 236° Southwest  Level Estimated
Mon 12:40:00 PM 61.3978 -40.5809 236° Southwest  Level Estimated
Mon 12:41:00 PM 61.3279 -40.7958 236° Southwest  Level Estimated
Mon 12:42:00 PM 61.2576 -41.0097 236° Southwest  Level Estimated
Mon 12:43:00 PM 61.1871 -41.2226 236° Southwest  Level Estimated
Mon 12:44:00 PM 61.1162 -41.4346 235° Southwest  Level Estimated
Mon 12:45:00 PM 61.0449 -41.6457 235° Southwest  Level Estimated
Mon 12:46:00 PM 60.9734 -41.8558 235° Southwest  Level Estimated
Mon 12:47:00 PM 60.9015 -42.0649 235° Southwest  Level Estimated
Mon 12:48:00 PM 60.8293 -42.2731 235° Southwest  Level Estimated
Mon 12:49:00 PM 60.7567 -42.4804 234° Southwest  Level Estimated
Mon 12:50:00 PM 60.6839 -42.6867 234° Southwest  Level Estimated
Mon 12:51:00 PM 60.6107 -42.8921 234° Southwest  Level Estimated
Mon 12:52:00 PM 60.5372 -43.0965 234° Southwest  Level Estimated
Mon 12:53:00 PM 60.4634 -43.3001 234° Southwest  Level Estimated
Mon 12:54:00 PM 60.3893 -43.5027 234° Southwest  Level Estimated
Mon 12:55:00 PM 60.3149 -43.7044 233° Southwest  Level Estimated
Mon 12:56:00 PM 60.2402 -43.9051 233° Southwest  Level Estimated
Mon 12:57:00 PM 60.1652 -44.1050 233° Southwest  Level Estimated
Mon 12:58:00 PM 60.0899 -44.3039 233° Southwest  Level Estimated
Mon 12:59:00 PM 60.0143 -44.5019 233° Southwest  Level Estimated
Mon 01:00:00 PM 59.9384 -44.6991 233° Southwest  Level Estimated
Mon 01:01:00 PM 59.8622 -44.8953 232° Southwest  Level Estimated
Mon 01:02:00 PM 59.7857 -45.0906 232° Southwest  Level Estimated
Mon 01:03:00 PM 59.7089 -45.2850 232° Southwest  Level Estimated
Mon 01:04:00 PM 59.6318 -45.4786 232° Southwest  Level Estimated
Mon 01:05:00 PM 59.5545 -45.6712 232° Southwest  Level Estimated
Mon 01:06:00 PM 59.4769 -45.8630 231° Southwest  Level Estimated
Mon 01:07:00 PM 59.3989 -46.0539 231° Southwest  Level Estimated
Mon 01:08:00 PM 59.3208 -46.2439 231° Southwest  Level Estimated
Mon 01:09:00 PM 59.2423 -46.4330 231° Southwest  Level Estimated
Mon 01:10:00 PM 59.1636 -46.6213 231° Southwest  Level Estimated
Mon 01:11:00 PM 59.0846 -46.8087 231° Southwest  Level Estimated
Mon 01:12:00 PM 59.0053 -46.9952 231° Southwest  Level Estimated
Mon 01:13:00 PM 58.9258 -47.1809 230° Southwest  Level Estimated
Mon 01:14:00 PM 58.8459 -47.3657 230° Southwest  Level Estimated
Mon 01:15:00 PM 58.7659 -47.5496 230° Southwest  Level Estimated
Mon 01:16:00 PM 58.6856 -47.7328 230° Southwest  Level Estimated
Mon 01:17:00 PM 58.6050 -47.9151 230° Southwest  Level Estimated
Mon 01:18:00 PM 58.5241 -48.0965 230° Southwest  Level Estimated
Mon 01:19:00 PM 58.4430 -48.2771 229° Southwest  Level Estimated
Mon 01:20:00 PM 58.3617 -48.4569 229° Southwest  Level Estimated
Mon 01:21:00 PM 58.2801 -48.6358 229° Southwest  Level Estimated
Mon 01:22:00 PM 58.1982 -48.8139 229° Southwest  Level Estimated
Mon 01:23:00 PM 58.1161 -48.9912 229° Southwest  Level Estimated
Mon 01:24:00 PM 58.0338 -49.1677 229° Southwest  Level Estimated
Mon 01:25:00 PM 57.9512 -49.3434 229° Southwest  Level Estimated
Mon 01:26:00 PM 57.8684 -49.5182 228° Southwest  Level Estimated
Mon 01:27:00 PM 57.7853 -49.6923 228° Southwest  Level Estimated
Mon 01:28:00 PM 57.7020 -49.8655 228° Southwest  Level Estimated
Mon 01:29:00 PM 57.6185 -50.0380 228° Southwest  Level Estimated
Mon 01:30:00 PM 57.5347 -50.2097 228° Southwest  Level Estimated
Mon 01:31:00 PM 57.4518 -50.3782 228° Southwest  Level Estimated
Mon 01:32:00 PM 57.3686 -50.5462 227° Southwest  Level Estimated
Mon 01:32:55 PM 60.1833 -55.9667 227° Southwest 440 506 36,000  Level Gander Center
Mon 01:33:00 PM 57.2852 -50.7135 227° Southwest  Level Estimated
Mon 01:33:55 PM 60.1167 -56.1667 236° Southwest 440 506 36,000  Level Gander Center
Mon 01:34:00 PM 57.2016 -50.8800 227° Southwest  Level Estimated
Mon 01:34:55 PM 60.0500 -56.3833 238° Southwest 440 506 36,000  Level Gander Center
Mon 01:35:00 PM 57.1177 -51.0457 227° Southwest  Level Estimated
Mon 01:36:00 PM 57.0337 -51.2107 227° Southwest  Level Estimated
Mon 01:36:50 PM 59.9167 -56.7667 235° Southwest 440 506 36,000  Level Gander Center
Mon 01:37:00 PM 56.9494 -51.3749 227° Southwest  Level Estimated
Mon 01:37:50 PM 59.8333 -56.9833 233° Southwest 440 506 36,000  Level Gander Center
Mon 01:38:00 PM 56.8649 -51.5384 227° Southwest  Level Estimated
Mon 01:38:50 PM 59.7500 -57.1833 230° Southwest 440 506 36,000  Level Gander Center
Mon 01:39:50 PM 59.7000 -57.3500 239° Southwest 440 506 36,000  Level Gander Center
Mon 01:40:50 PM 59.6167 -57.5667 233° Southwest 440 506 36,000  Level Gander Center
Mon 01:41:50 PM 59.5500 -57.7333 232° Southwest 440 506 36,000  Level Gander Center
Mon 01:43:55 PM 59.3833 -58.0833 216° Southwest 430 495 36,000  Level Gander Center
Mon 01:44:55 PM 59.2667 -58.1833 204° Southwest 430 495 36,000  Level Gander Center
Mon 01:46:55 PM 59.0500 -58.4333 211° Southwest 440 506 36,000  Level Gander Center
Mon 01:47:55 PM 58.9500 -58.5333 207° Southwest 440 506 36,000  Level Gander Center
Mon 01:48:55 PM 58.8500 -58.6667 215° Southwest 440 506 36,000  Level Gander Center
Mon 01:49:55 PM 58.7333 -58.7833 207° Southwest 440 506 36,000  Level Gander Center
Mon 01:50:55 PM 58.6333 -58.8833 208° Southwest 440 506 36,000  Level Gander Center
Mon 01:51:50 PM 58.5333 -58.9833 208° Southwest 440 506 36,000  Level Gander Center
Mon 01:52:50 PM 58.4333 -59.0833 208° Southwest 440 506 36,000  Level Gander Center
Mon 01:53:50 PM 58.3167 -59.2167 211° Southwest 440 506 36,000  Level Gander Center
Mon 01:54:50 PM 58.2167 -59.3167 208° Southwest 450 518 36,000  Level Gander Center
Mon 01:55:50 PM 58.1000 -59.4167 204° Southwest 450 518 36,000  Level Gander Center
Mon 01:56:50 PM 58.0167 -59.5500 220° Southwest 440 506 36,000  Level Gander Center
Mon 01:57:50 PM 57.9000 -59.6500 204° Southwest 440 506 36,000  Level Gander Center
Mon 01:58:50 PM 57.7833 -59.7500 205° Southwest 440 506 36,000  Level Gander Center
Mon 01:59:50 PM 57.6833 -59.8833 216° Southwest 440 506 36,000  Level Gander Center
Mon 02:00:50 PM 57.5667 -59.9833 205° Southwest 450 518 36,000  Level Gander Center
Mon 02:01:50 PM 57.4500 -60.1000 208° Southwest 450 518 36,000  Level Gander Center
Mon 02:02:55 PM 57.3167 -60.2333 208° Southwest 450 518 36,000  Level Gander Center
Mon 02:03:55 PM 57.2000 -60.3333 205° Southwest 450 518 36,000  Level Gander Center
Mon 02:05:55 PM 56.9833 -60.5500 208° Southwest 450 518 36,000  Level Gander Center
Mon 02:06:55 PM 56.8667 -60.6333 201° Southwest 450 518 36,000  Level Gander Center
Mon 02:07:55 PM 56.7667 -60.7667 216° Southwest 450 518 36,000  Level Gander Center
Mon 02:08:55 PM 56.6500 -60.8500 201° Southwest 450 518 36,000  Level Gander Center
Mon 02:10:55 PM 56.4167 -61.0667 207° Southwest 440 506 36,000  Level Gander Center
Mon 02:11:55 PM 56.3167 -61.2000 217° Southwest 450 518 36,000  Level Gander Center
Mon 02:12:55 PM 56.2000 -61.2833 202° Southwest 450 518 36,000  Level Gander Center
Mon 02:13:55 PM 56.1000 -61.3667 205° Southwest 460 529 36,000  Level Gander Center
Mon 02:14:55 PM 55.9667 -61.4833 206° Southwest 450 518 36,000  Level Gander Center
Mon 02:15:55 PM 55.8667 -61.5833 209° Southwest 450 518 36,000  Level Gander Center
Mon 02:16:55 PM 55.7500 -61.7000 209° Southwest 450 518 36,000  Level Gander Center
Mon 02:17:55 PM 55.6500 -61.7833 205° Southwest 450 518 36,000  Level Gander Center
Mon 02:18:55 PM 55.5333 -61.8667 202° Southwest 450 518 36,000  Level Gander Center
Mon 02:19:55 PM 55.4167 -61.9833 210° Southwest 450 518 36,000  Level Gander Center
Mon 02:20:55 PM 55.3167 -62.0667 205° Southwest 440 506 36,000  Level Gander Center
Mon 02:21:55 PM 55.2000 -62.1833 210° Southwest 450 518 36,000  Level Gander Center
Mon 02:22:55 PM 55.1000 -62.2667 205° Southwest 440 506 36,000  Level Gander Center
Mon 02:23:55 PM 54.9833 -62.3667 206° Southwest 440 506 36,000  Level Gander Center
Mon 02:24:55 PM 54.8667 -62.4667 206° Southwest 440 506 36,000  Level Gander Center
Mon 02:25:55 PM 54.7500 -62.5500 202° Southwest 450 518 36,000  Level Gander Center
Mon 02:26:55 PM 54.6500 -62.6333 206° Southwest 450 518 36,000  Level Gander Center
Mon 02:27:55 PM 54.5167 -62.7500 207° Southwest 450 518 36,000  Level Gander Center
Mon 02:28:55 PM 54.4000 -62.8333 203° Southwest 460 529 36,000  Level Gander Center
Mon 02:29:55 PM 54.3000 -62.9500 214° Southwest 460 529 36,000  Level Gander Center
Mon 02:30:55 PM 54.1833 -63.0167 198° South 460 529 36,000  Level Gander Center
Mon 02:31:55 PM 54.0667 -63.1000 203° Southwest 460 529 36,000  Level Gander Center
Mon 02:32:55 PM 53.9500 -63.2167 210° Southwest 460 529 36,000  Level Gander Center
Mon 02:33:55 PM 53.8500 -63.3000 206° Southwest 460 529 36,000  Level Gander Center
Mon 02:34:55 PM 53.7333 -63.4000 207° Southwest 450 518 36,000  Level Gander Center
Mon 02:35:55 PM 53.6167 -63.4833 203° Southwest 450 518 36,000  Level Gander Center
Mon 02:36:55 PM 53.4833 -63.5833 204° Southwest 450 518 36,000  Level Gander Center
Mon 02:37:55 PM 53.3833 -63.6667 206° Southwest 450 518 36,000  Level Gander Center
Mon 02:38:55 PM 53.2667 -63.7667 207° Southwest 450 518 36,000  Level Gander Center
Mon 02:39:55 PM 53.1500 -63.8500 203° Southwest 450 518 36,000  Level Gander Center
Mon 02:40:55 PM 53.0500 -63.9167 202° Southwest 450 518 36,000  Level Gander Center
Mon 02:42:55 PM 52.8167 -64.1000 205° Southwest 450 518 36,000  Level Gander Center
Mon 02:43:55 PM 52.7167 -64.1833 207° Southwest 450 518 36,000  Level Gander Center
Mon 02:46:00 PM 52.4667 -64.3667 204° Southwest 450 518 36,000  Level Moncton Center
Mon 02:46:55 PM 52.3667 -64.4333 202° Southwest 450 518 36,000  Level Gander Center
Mon 02:48:55 PM 52.1333 -64.6000 204° Southwest 450 518 36,000  Level Gander Center
Mon 02:49:55 PM 52.0167 -64.7000 208° Southwest 460 529 36,000  Level Gander Center
Mon 02:52:00 PM 51.7667 -64.8833 204° Southwest 460 529 36,000  Level Moncton Center
Mon 02:54:00 PM 51.5500 -65.0667 208° Southwest 460 529 36,000  Level Moncton Center
Mon 02:54:55 PM 51.4500 -65.1667 212° Southwest 460 529 36,000  Level Gander Center
Mon 02:55:55 PM 51.3167 -65.2667 205° Southwest 470 541 36,000  Level Gander Center
Mon 02:58:00 PM 51.1000 -65.4667 210° Southwest 470 541 36,000  Level Moncton Center
Mon 02:59:00 PM 50.9500 -65.5667 203° Southwest 470 541 36,000  Level Moncton Center
Mon 03:00:00 PM 50.8500 -65.6667 212° Southwest 480 552 36,000  Level Moncton Center
Mon 03:01:00 PM 50.7333 -65.7500 204° Southwest 470 541 36,000  Level Moncton Center
Mon 03:01:55 PM 50.6333 -65.8500 212° Southwest 470 541 36,000  Level Gander Center
Mon 03:02:55 PM 50.5167 -65.9333 204° Southwest 480 552 36,000  Level Gander Center
Mon 03:03:55 PM 50.3833 -66.0333 206° Southwest 480 552 36,000  Level Gander Center
Mon 03:04:55 PM 50.2667 -66.1167 205° Southwest 480 552 36,000  Level Gander Center
Mon 03:05:55 PM 50.1667 -66.2167 213° Southwest 480 552 36,000  Level Gander Center
Mon 03:06:55 PM 50.0333 -66.3333 209° Southwest 480 552 36,000  Level Gander Center
Mon 03:07:55 PM 49.9167 -66.4333 209° Southwest 480 552 36,000  Level Gander Center
Mon 03:08:55 PM 49.7833 -66.5167 202° Southwest 480 552 36,000  Level Gander Center
Mon 03:09:55 PM 49.6833 -66.6000 208° Southwest 480 552 36,000  Level Gander Center
Mon 03:10:55 PM 49.5333 -66.7000 203° Southwest 480 552 36,000  Level Gander Center
Mon 03:12:00 PM 49.4167 -66.7833 205° Southwest 480 552 36,000  Level Moncton Center
Mon 03:13:00 PM 49.3000 -66.8833 209° Southwest 480 552 36,000  Level Moncton Center
Mon 03:14:00 PM 49.1833 -66.9833 209° Southwest 480 552 36,000  Level Moncton Center
Mon 03:15:55 PM 48.9500 -67.1667 207° Southwest 490 564 36,000  Level Gander Center
Mon 03:16:55 PM 48.8333 -67.2500 205° Southwest 490 564 36,000  Level Gander Center
Mon 03:17:55 PM 48.7000 -67.3333 202° Southwest 490 564 36,000  Level Gander Center
Mon 03:18:55 PM 48.5833 -67.4167 205° Southwest 490 564 36,000  Level Gander Center
Mon 03:20:00 PM 48.4500 -67.5333 210° Southwest 490 564 36,000  Level Moncton Center
Mon 03:21:00 PM 48.3167 -67.6167 203° Southwest 490 564 36,000  Level Moncton Center
Mon 03:22:00 PM 48.2000 -67.7167 210° Southwest 490 564 36,000  Level Moncton Center
Mon 03:23:00 PM 48.0833 -67.8000 206° Southwest 490 564 36,000  Level Moncton Center
Mon 03:24:55 PM 47.8500 -67.9833 208° Southwest 490 564 36,000  Level Gander Center
Mon 03:25:55 PM 47.7167 -68.0667 203° Southwest 480 552 36,000  Level Gander Center
Mon 03:32:00 PM 46.9833 -68.5667 203° Southwest 480 552 36,000  Level Moncton Center
Mon 03:32:38 PM 46.9514 -68.6103 223° Southwest 482 555 36,000  Level Boston Center
Mon 03:33:38 PM 46.8294 -68.6922 205° Southwest 482 555 36,000  Level Boston Center
Mon 03:34:39 PM 46.7072 -68.7750 205° Southwest 482 555 36,000  Level Boston Center
Mon 03:35:40 PM 46.5603 -68.8750 205° Southwest 482 555 36,000  Level Boston Center
Mon 03:36:44 PM 46.4369 -68.9592 205° Southwest 486 559 36,000  Level Boston Center
Mon 03:37:45 PM 46.3131 -69.0417 205° Southwest 487 560 36,000  Level Boston Center
Mon 03:38:45 PM 46.1864 -69.1297 206° Southwest 488 562 36,000  Level Boston Center
Mon 03:39:48 PM 46.0631 -69.2114 205° Southwest 488 562 36,000  Level Boston Center
Mon 03:40:49 PM 45.9397 -69.2922 205° Southwest 488 562 36,000  Level Boston Center
Mon 03:41:49 PM 45.8158 -69.3736 205° Southwest 489 563 36,000  Level Boston Center
Mon 03:43:00 PM 45.6500 -69.5000 208° Southwest 490 564 36,000  Level Moncton Center
Mon 03:43:54 PM 45.5692 -69.5344 197° South 489 563 36,000  Level Boston Center
Mon 03:44:55 PM 45.4458 -69.6139 204° Southwest 489 563 36,000  Level Boston Center
Mon 03:45:56 PM 45.2969 -69.7100 204° Southwest 489 563 36,000  Level Boston Center
Mon 03:46:57 PM 45.1728 -69.7903 205° Southwest 489 563 36,000  Level Boston Center
Mon 03:48:01 PM 45.0489 -69.8706 205° Southwest 490 564 36,000  Level Boston Center
Mon 03:49:01 PM 44.9247 -69.9503 204° Southwest 490 564 36,000  Level Boston Center
Mon 03:50:01 PM 44.8006 -70.0281 204° Southwest 491 565 36,000  Level Boston Center
Mon 03:51:02 PM 44.6775 -70.1053 204° Southwest 491 565 36,000  Level Boston Center
Mon 03:52:06 PM 44.5297 -70.1992 204° Southwest 491 565 36,000  Level Boston Center
Mon 03:53:07 PM 44.4053 -70.2747 203° Southwest 490 564 36,000  Level Boston Center
Mon 03:54:08 PM 44.2822 -70.3517 204° Southwest 488 562 36,000  Level Boston Center
Mon 03:55:11 PM 44.1794 -70.4692 219° Southwest 483 556 36,000  Level Boston Center
Mon 03:56:12 PM 44.0775 -70.5856 219° Southwest 477 549 36,000  Level Boston Center
Mon 03:57:13 PM 43.9758 -70.7006 219° Southwest 474 545 36,000  Level Boston Center
Mon 03:58:14 PM 43.8728 -70.8169 219° Southwest 474 545 36,000  Level Boston Center
Mon 03:59:17 PM 43.7703 -70.9322 219° Southwest 474 545 36,000  Level Boston Center
Mon 04:00:17 PM 43.6511 -71.0653 219° Southwest 474 545 36,000  Level Boston Center
Mon 04:01:20 PM 43.5497 -71.1775 219° Southwest 472 543 36,000  Level Boston Center
Mon 04:02:21 PM 43.4478 -71.2911 219° Southwest 472 543 36,000  Level Boston Center
Mon 04:03:21 PM 43.3458 -71.4058 219° Southwest 472 543 36,000  Level Boston Center
Mon 04:04:25 PM 43.2425 -71.5186 219° Southwest 475 547 36,000  Level Boston Center
Mon 04:05:26 PM 43.1386 -71.6292 218° Southwest 475 547 36,000  Level Boston Center
Mon 04:06:26 PM 43.0364 -71.7431 219° Southwest 475 547 36,000  Level Boston Center
Mon 04:07:30 PM 42.9336 -71.8533 218° Southwest 473 544 36,000  Level Boston Center
Mon 04:08:30 PM 42.8100 -71.9867 218° Southwest 473 544 36,000  Level Boston Center
Mon 04:09:31 PM 42.7075 -72.0967 218° Southwest 473 544 36,000  Level Boston Center
Mon 04:10:35 PM 42.6039 -72.2072 218° Southwest 472 543 36,000  Level Boston Center
Mon 04:11:35 PM 42.5056 -72.3111 218° Southwest 472 543 36,000  Level Boston Center
Mon 04:12:36 PM 42.4036 -72.4194 218° Southwest 471 542 36,000  Level Boston Center
Mon 04:13:39 PM 42.2917 -72.5367 218° Southwest 471 542 36,000  Level Boston Center
Mon 04:14:40 PM 42.1878 -72.6467 218° Southwest 471 542 36,000  Level Boston Center
Mon 04:15:41 PM 42.0825 -72.7572 218° Southwest 472 543 36,000  Level Boston Center
Mon 04:16:43 PM 41.9775 -72.8675 218° Southwest 473 544 36,000  Level Boston Center
Mon 04:17:44 PM 41.8708 -72.9781 218° Southwest 482 555 36,000  Level Boston Center
Mon 04:18:44 PM 41.7647 -73.0886 218° Southwest 482 555 36,000  Level Boston Center
Mon 04:19:48 PM 41.6375 -73.2189 217° Southwest 482 555 36,000  Level Boston Center
Mon 04:20:48 PM 41.5319 -73.3267 217° Southwest 482 555 36,000  Level Boston Center
Mon 04:21:52 PM 41.4222 -73.4392 218° Southwest 476 548 36,000  Level Boston Center
Mon 04:22:53 PM 41.3197 -73.5431 217° Southwest 470 541 36,000  Level Boston Center
Mon 04:23:53 PM 41.2311 -73.6606 225° Southwest 456 525 36,000  Level Boston Center
Mon 04:24:56 PM 41.1550 -73.7947 233° Southwest 456 525 36,000  Level Boston Center
Mon 04:25:38 PM 41.0950 -73.9017 233° Southwest 462 532 36,000  Level New York Center
Mon 04:26:38 PM 41.0125 -74.0325 230° Southwest 462 532 36,000  Level New York Center
Mon 04:27:39 PM 40.9336 -74.1686 233° Southwest 462 532 36,000  Level New York Center
Mon 04:28:37 PM 40.8617 -74.2803 230° Southwest 462 532 36,000  Level New York Center
Mon 04:29:36 PM 40.7847 -74.4106 232° Southwest 456 525 36,000  Level New York Center
Mon 04:30:37 PM 40.7056 -74.5433 232° Southwest 456 525 36,000  Level New York Center
Mon 04:31:39 PM 40.6264 -74.6728 231° Southwest 456 525 36,000  Level New York Center
Mon 04:32:37 PM 40.5428 -74.7992 229° Southwest 456 525 36,000  Level New York Center
Mon 04:33:38 PM 40.4572 -74.9225 228° Southwest 461 531 36,000  Level New York Center
Mon 04:34:36 PM 40.3717 -75.0425 227° Southwest 466 536 36,000  Level New York Center
Mon 04:35:37 PM 40.2881 -75.1625 228° Southwest 455 524 36,000  Level New York Center
Mon 04:36:38 PM 40.2022 -75.2822 227° Southwest 455 524 36,000  Level New York Center
Mon 04:37:38 PM 40.1186 -75.3989 227° Southwest 455 524 36,000  Level New York Center
Mon 04:38:38 PM 40.0325 -75.5178 227° Southwest 455 524 36,000  Level New York Center
Mon 04:39:36 PM 39.9486 -75.6342 227° Southwest 450 518 36,000  Level New York Center
Mon 04:40:37 PM 39.8686 -75.7531 229° Southwest 450 518 36,000  Level New York Center
Mon 04:41:36 PM 39.7947 -75.8719 231° Southwest 444 511 36,000  Level New York Center
Mon 04:42:36 PM 39.7117 -76.0064 231° Southwest 439 505 36,000  Level New York Center
Mon 04:43:37 PM 39.6378 -76.1222 230° Southwest 434 499 36,000  Level New York Center
Mon 04:44:39 PM 39.5703 -76.2247 230° Southwest 434 499 36,000  Level New York Center
Mon 04:45:37 PM 39.4964 -76.3375 230° Southwest 429 494 36,000  Level New York Center
Mon 04:46:45 PM 39.4167 -76.4728 233° Southwest 412 474 36,000  Level Washington Center
Mon 04:47:45 PM 39.3322 -76.5925 228° Southwest 404 465 36,000  Level Washington Center
Mon 04:48:45 PM 39.2606 -76.7039 230° Southwest 404 465 36,000  Level Washington Center
Mon 04:49:46 PM 39.1906 -76.8128 230° Southwest 404 465 36,000  Level Washington Center
Mon 04:50:46 PM 39.1186 -76.9239 230° Southwest 404 465 36,000  Level Washington Center
Mon 04:51:47 PM 39.0508 -77.0297 231° Southwest 399 459 36,000  Level Washington Center
Mon 04:52:45 PM 38.9661 -77.1214 220° Southwest 399 459 36,000  Level Washington Center
Mon 04:53:45 PM 38.8836 -77.2156 222° Southwest 399 459 36,000  Level Washington Center
Mon 04:54:45 PM 38.7992 -77.3044 219° Southwest 399 459 36,000  Level Washington Center
Mon 04:55:47 PM 38.7122 -77.3956 219° Southwest 404 465 36,000  Level Washington Center
Mon 04:56:45 PM 38.6294 -77.4892 221° Southwest 409 471 36,000  Level Washington Center
Mon 04:57:45 PM 38.5447 -77.5800 220° Southwest 409 471 36,000  Level Washington Center
Mon 04:58:46 PM 38.4597 -77.6731 221° Southwest 409 471 36,000  Level Washington Center
Mon 04:59:47 PM 38.3767 -77.7633 220° Southwest 409 471 36,000  Level Washington Center
Mon 05:00:47 PM 38.2917 -77.8561 221° Southwest 409 471 36,000  Level Washington Center
Mon 05:01:46 PM 38.2172 -77.9358 220° Southwest 409 471 36,000  Level Washington Center
Mon 05:02:47 PM 38.1319 -78.0283 220° Southwest 409 471 36,000  Level Washington Center
Mon 05:03:47 PM 38.0486 -78.1178 220° Southwest 409 471 36,000  Level Washington Center
Mon 05:04:45 PM 37.9592 -78.2122 220° Southwest 398 458 36,000  Level Washington Center
Mon 05:05:45 PM 37.8697 -78.2961 217° Southwest 398 458 36,000  Level Washington Center
Mon 05:06:47 PM 37.7781 -78.3819 217° Southwest 403 464 36,000  Level Washington Center
Mon 05:07:47 PM 37.6883 -78.4653 216° Southwest 403 464 36,000  Level Washington Center
Mon 05:08:45 PM 37.5986 -78.5511 217° Southwest 408 470 36,000  Level Washington Center
Mon 05:09:46 PM 37.5069 -78.6339 216° Southwest 408 470 36,000  Level Washington Center
Mon 05:10:45 PM 37.4172 -78.7192 217° Southwest 408 470 36,000  Level Washington Center
Mon 05:11:46 PM 37.3272 -78.8017 216° Southwest 408 470 36,000  Level Washington Center
Mon 05:12:46 PM 37.2375 -78.8867 217° Southwest 408 470 36,000  Level Washington Center
Mon 05:13:46 PM 37.1433 -78.9714 216° Southwest 414 476 36,000  Level Washington Center
Mon 05:14:45 PM 37.0531 -79.0558 217° Southwest 414 476 36,000  Level Washington Center
Mon 05:15:45 PM 36.9589 -79.1425 216° Southwest 414 476 36,000  Level Washington Center
Mon 05:16:46 PM 36.8686 -79.2292 218° Southwest 414 476 36,000  Level Washington Center
Mon 05:17:45 PM 36.7742 -79.3131 215° Southwest 414 476 36,000  Level Washington Center
Mon 05:18:45 PM 36.6819 -79.3967 216° Southwest 414 476 36,000  Level Washington Center
Mon 05:19:46 PM 36.5894 -79.4853 218° Southwest 414 476 36,000  Level Washington Center
Mon 05:20:47 PM 36.4969 -79.5683 216° Southwest 414 476 36,000  Level Washington Center
Mon 05:23:20 PM 36.2517 -79.7856 216° Southwest 423 487 36,000  Level Atlanta Center
Mon 05:24:20 PM 36.1564 -79.8703 216° Southwest 403 464 36,000  Level Atlanta Center
Mon 05:25:20 PM 36.0633 -79.9544 216° Southwest 413 475 36,000  Level Atlanta Center
Mon 05:26:20 PM 35.9547 -80.0164 205° Southwest 413 475 36,000  Level Atlanta Center
Mon 05:27:20 PM 35.8461 -80.0731 203° Southwest 426 490 36,000  Level Atlanta Center
Mon 05:28:20 PM 35.7353 -80.1297 203° Southwest 431 496 36,000  Level Atlanta Center
Mon 05:29:20 PM 35.6286 -80.1858 203° Southwest 431 496 36,000  Level Atlanta Center
Mon 05:30:20 PM 35.5197 -80.2419 203° Southwest 431 496 36,000  Level Atlanta Center
Mon 05:31:20 PM 35.4086 -80.2956 201° Southwest 431 496 36,000  Level Atlanta Center
Mon 05:32:20 PM 35.2978 -80.3539 203° Southwest 431 496 36,000  Level Atlanta Center
Mon 05:33:20 PM 35.1889 -80.4047 201° Southwest 431 496 36,000  Level Atlanta Center
Mon 05:34:20 PM 35.0778 -80.4628 203° Southwest 431 496 36,000  Level Atlanta Center
Mon 05:35:19 PM 34.9614 -80.5192 202° Southwest 435 501 36,000  Level Jacksonville Center
Mon 05:36:19 PM 34.8519 -80.5703 201° Southwest 430 495 36,000  Level Jacksonville Center
Mon 05:37:19 PM 34.7444 -80.6261 203° Southwest 424 488 36,000  Level Jacksonville Center
Mon 05:38:19 PM 34.6350 -80.6822 203° Southwest 419 482 36,000  Level Jacksonville Center
Mon 05:39:19 PM 34.5150 -80.7406 202° Southwest 444 511 36,000  Level Jacksonville Center
Mon 05:40:19 PM 34.3919 -80.7411 180° South 444 511 36,000  Level Jacksonville Center
Mon 05:41:19 PM 34.2958 -80.7386 179° South 433 498 36,000  Level Jacksonville Center
Mon 05:42:19 PM 34.1597 -80.7167 172° South 433 498 36,000  Level Jacksonville Center
Mon 05:43:19 PM 34.0386 -80.7047 175° South 433 498 36,000  Level Jacksonville Center
Mon 05:44:19 PM 33.9194 -80.6953 176° South 433 498 36,000  Level Jacksonville Center
Mon 05:45:19 PM 33.7983 -80.6833 175° South 433 498 36,000  Level Jacksonville Center
Mon 05:46:19 PM 33.6772 -80.6764 177° South 433 498 36,000  Level Jacksonville Center
Mon 05:47:19 PM 33.5581 -80.6669 176° South 433 498 36,000  Level Jacksonville Center
Mon 05:48:19 PM 33.4394 -80.6922 190° South 433 498 36,000  Level Jacksonville Center
Mon 05:49:19 PM 33.3231 -80.7175 190° South 433 498 36,000  Level Jacksonville Center
Mon 05:50:19 PM 33.2044 -80.7303 185° South 433 498 36,000  Level Jacksonville Center
Mon 05:51:19 PM 33.0833 -80.7381 183° South 433 498 36,000  Level Jacksonville Center
Mon 05:52:19 PM 32.9583 -80.7411 181° South 438 504 36,000  Level Jacksonville Center
Mon 05:53:19 PM 32.8353 -80.7492 183° South 438 504 36,000  Level Jacksonville Center
Mon 05:54:19 PM 32.7122 -80.7519 181° South 438 504 36,000  Level Jacksonville Center
Mon 05:55:19 PM 32.5994 -80.7572 182° South 446 513 36,000  Level Jacksonville Center
Mon 05:56:19 PM 32.4764 -80.7625 182° South 446 513 36,000  Level Jacksonville Center
Mon 05:57:19 PM 32.3472 -80.7706 183° South 430 495 36,000  Level Jacksonville Center
Mon 05:58:19 PM 32.2261 -80.7733 181° South 430 495 36,000  Level Jacksonville Center
Mon 05:59:19 PM 32.1175 -80.7658 177° South 440 506 36,000  Level Jacksonville Center
Mon 06:00:19 PM 31.9794 -80.7617 179° South 440 506 36,000  Level Jacksonville Center
Mon 06:01:19 PM 31.8564 -80.7572 178° South 446 513 36,000  Level Jacksonville Center
Mon 06:02:19 PM 31.7436 -80.7550 179° South 446 513 36,000  Level Jacksonville Center
Mon 06:03:19 PM 31.6203 -80.7506 178° South 446 513 36,000  Level Jacksonville Center
Mon 06:04:19 PM 31.4825 -80.7489 179° South 446 513 36,000  Level Jacksonville Center
Mon 06:05:19 PM 31.3592 -80.7444 178° South 446 513 36,000  Level Jacksonville Center
Mon 06:06:19 PM 31.2275 -80.7353 177° South 453 521 36,000  Level Jacksonville Center
Mon 06:07:19 PM 31.1000 -80.7356 180° South 458 527 36,000  Level Jacksonville Center
Mon 06:08:19 PM 30.9706 -80.7289 177° South 464 534 36,000  Level Jacksonville Center
Mon 06:09:19 PM 30.8431 -80.7222 177° South 459 528 36,000  Level Jacksonville Center
Mon 06:10:19 PM 30.7178 -80.7203 179° South 459 528 36,000  Level Jacksonville Center
Mon 06:11:19 PM 30.5925 -80.7183 179° South 464 534 36,000  Level Jacksonville Center
Mon 06:12:19 PM 30.4650 -80.7117 177° South 459 528 36,000  Level Jacksonville Center
Mon 06:13:19 PM 30.3375 -80.7097 179° South 459 528 36,000  Level Jacksonville Center
Mon 06:14:19 PM 30.2081 -80.7031 177° South 459 528 36,000  Level Jacksonville Center
Mon 06:15:19 PM 30.0806 -80.6986 178° South 459 528 36,000  Level Jacksonville Center
Mon 06:16:19 PM 29.9511 -80.6944 178° South 459 528 36,000  Level Jacksonville Center
Mon 06:17:19 PM 29.8217 -80.6900 178° South 459 528 36,000  Level Jacksonville Center
Mon 06:18:19 PM 29.7067 -80.6881 179° South 459 528 36,000  Level Jacksonville Center
Mon 06:20:13 PM 29.4594 -80.6797 178° South 461 531 36,000  Level Miami Center
Mon 06:21:15 PM 29.3247 -80.6747 178° South 463 533 36,000  Level Miami Center
Mon 06:22:17 PM 29.1961 -80.6564 173° South 464 534 36,000  Level Miami Center
Mon 06:23:18 PM 29.0683 -80.6422 174° South 463 533 36,000  Level Miami Center
Mon 06:24:20 PM 28.9403 -80.6272 174° South 463 533 36,000  Level Miami Center
Mon 06:25:21 PM 28.7947 -80.6122 175° South 462 532 36,000  Level Miami Center
Mon 06:26:23 PM 28.6611 -80.5964 174° South 460 529 36,000  Level Miami Center
Mon 06:27:25 PM 28.5275 -80.5819 175° South 460 529 36,000  Level Miami Center
Mon 06:28:26 PM 28.4036 -80.5678 174° South 461 531 36,000  Level Miami Center
Mon 06:29:28 PM 28.2683 -80.5828 186° South 468 539 36,000  Level Miami Center
Mon 06:30:29 PM 28.1336 -80.6006 187° South 468 539 36,000  Level Miami Center
Mon 06:31:31 PM 28.0133 -80.6208 188° South 467 537 36,000  Level Miami Center
Mon 06:32:33 PM 27.8839 -80.6392 187° South 467 537 36,000  Level Miami Center
Mon 06:33:34 PM 27.7500 -80.6592 188° South 465 535 36,000  Level Miami Center
Mon 06:34:36 PM 27.6236 -80.6769 187° South 461 531 36,000  Level Miami Center
Mon 06:35:37 PM 27.4947 -80.6964 188° South 475 547 36,000  Level Miami Center
Mon 06:36:39 PM 27.3647 -80.7150 187° South 472 543 36,000  Level Miami Center
Mon 06:37:41 PM 27.2369 -80.7339 187° South 465 535 36,000  Level Miami Center
Mon 06:38:42 PM 27.0844 -80.7569 188° South 462 532 36,000  Level Miami Center
Mon 06:39:44 PM 26.9558 -80.7761 188° South 465 535 36,000  Level Miami Center
Mon 06:40:45 PM 26.8289 -80.7939 187° South 460 529 36,000  Level Miami Center
Mon 06:41:47 PM 26.6858 -80.8158 188° South 463 533 36,000  Level Miami Center
Mon 06:42:48 PM 26.5622 -80.8328 187° South 464 534 36,000  Level Miami Center
Mon 06:43:50 PM 26.4225 -80.8522 187° South 463 533 36,000  Level Miami Center
Mon 06:44:51 PM 26.2933 -80.8711 187° South 467 537 36,000  Level Miami Center
Mon 06:45:53 PM 26.1686 -80.8903 188° South 468 539 36,000  Level Miami Center
Mon 06:46:54 PM 26.0431 -80.9106 188° South 465 535 36,000  Level Miami Center
Mon 06:47:56 PM 25.9167 -80.9300 188° South 462 532 36,000  Level Miami Center
Mon 06:48:58 PM 25.8053 -80.9958 208° Southwest 468 539 36,000  Level Miami Center
Mon 06:49:59 PM 25.6811 -81.1019 218° Southwest 473 544 36,000  Level Miami Center
Mon 06:51:01 PM 25.5781 -81.1908 218° Southwest 472 543 36,000  Level Miami Center
Mon 06:52:02 PM 25.4758 -81.2783 218° Southwest 472 543 36,000  Level Miami Center
Mon 06:53:04 PM 25.3725 -81.3656 217° Southwest 471 542 36,000  Level Miami Center
Mon 06:54:05 PM 25.2711 -81.4525 218° Southwest 466 536 36,000  Level Miami Center
Mon 06:55:07 PM 25.1697 -81.5397 218° Southwest 465 535 36,000  Level Miami Center
Mon 06:56:08 PM 25.0669 -81.6258 217° Southwest 464 534 36,000  Level Miami Center
Mon 06:57:10 PM 24.9439 -81.7294 217° Southwest 464 534 36,000 -629 Level Miami Center
Mon 06:58:12 PM 24.8544 -81.8069 218° Southwest 464 534 34,700 -1,756 Descending Miami Center
Mon 06:59:13 PM 24.7361 -81.9061 217° Southwest 476 548 32,400 -1,317 Descending Miami Center
Mon 07:00:15 PM 24.6344 -81.9919 218° Southwest 462 532 32,000 -488 Descending Miami Center
Mon 07:01:16 PM 24.5347 -82.0747 217° Southwest 451 519 31,400 -1,024 Descending Miami Center
Mon 07:02:18 PM 24.4364 -82.1567 217° Southwest 449 517 29,900 -1,610 Descending Miami Center
Mon 07:03:19 PM 24.3411 -82.2389 218° Southwest 440 506 28,100 -1,756 Descending Miami Center
Mon 07:04:21 PM 24.2422 -82.3178 216° Southwest 439 505 26,300 -1,902 Descending Miami Center
Mon 07:05:22 PM 24.1286 -82.4128 217° Southwest 430 495 24,200 -1,854 Descending Miami Center
Mon 07:06:24 PM 24.0303 -82.4858 214° Southwest 418 481 22,500 -1,707 Descending Miami Center
Mon 07:07:25 PM 23.9236 -82.5261 199° South 403 464 20,700 -1,770 Descending Miami Center
Mon 07:08:26 PM 23.8097 -82.5392 186° South 402 463 18,900 -1,770 Descending Miami Center
Mon 07:10:00 PM 23.6241 -82.4691 175° South  Level FlightAware Approximate
Mon 07:17:00 PM 22.9891 -82.4091 180° South  Level Estimated
Mon 07:18:00 PM 22.9891 -82.4091 180° South  Level Estimated
Mon 07:19:00 PM 22.9891 -82.4091 180° South  Level Estimated
Mon 07:20:00 PM 22.9891 -82.4091 180° South  Level Estimated
Mon 07:21:00 PM 22.9891 -82.4091 180° South  Level Estimated
Mon 07:22:00 PM 22.9891 -82.4091 180° South  Level Estimated
Mon 07:23:00 PM 22.9891 -82.4091 180° South  Level Estimated
Mon 07:24:00 PM 22.9891 -82.4091 180° South  Level Estimated
Mon 07:25:00 PM 22.9891 -82.4091 180° South  Level Estimated
Mon 07:26:00 PM 22.9891 -82.4091 180° South  Level Estimated
Mon 07:27:00 PM 22.9891 -82.4091 180° South  Level Estimated
Mon 07:28:00 PM 22.9891 -82.4091 180° South  Level Estimated
Mon 07:29:00 PM 22.9891 -82.4091 180° South  Level Estimated
Mon 07:30:00 PM 22.9891 -82.4091 180° South  Level Estimated
Mon 07:31:00 PM 22.9891 -82.4091 180° South  Level Estimated
Mon 07:32:00 PM 22.9891 -82.4091 180° South  Level Estimated
Mon 07:33:00 PM 22.9891 -82.4091 180° South  Level Estimated
Mon 07:34:00 PM 22.9891 -82.4091 180° South  Level Estimated
Mon 07:35:00 PM 22.9891 -82.4091 180° South  Level Estimated
Mon 07:36:00 PM 22.9891 -82.4091 180° South  Level Estimated
Mon 07:37:00 PM 22.9891 -82.4091 180° South  Level Estimated
Mon 07:38:00 PM 22.9891 -82.4091 180° South  Level Estimated

Login

Don't have an account? Register now (free) for customized features, flight alerts, and more!